sensor_id;sensor_type;location;lat;lon;timestamp;P1;durP1;ratioP1;P2;durP2;ratioP2
22841;SDS011;11587;47.064;15.444;2023-02-01T00:00:10;0.20;;;0.20;;
22841;SDS011;11587;47.064;15.444;2023-02-01T00:02:37;0.30;;;0.30;;
22841;SDS011;11587;47.064;15.444;2023-02-01T00:05:06;0.20;;;0.20;;
22841;SDS011;11587;47.064;15.444;2023-02-01T00:07:34;0.30;;;0.30;;
22841;SDS011;11587;47.064;15.444;2023-02-01T00:10:00;0.20;;;0.20;;
22841;SDS011;11587;47.064;15.444;2023-02-01T00:12:26;0.20;;;0.20;;
22841;SDS011;11587;47.064;15.444;2023-02-01T00:14:51;0.30;;;0.30;;
22841;SDS011;11587;47.064;15.444;2023-02-01T00:17:17;0.20;;;0.20;;
22841;SDS011;11587;47.064;15.444;2023-02-01T00:19:43;0.30;;;0.30;;
22841;SDS011;11587;47.064;15.444;2023-02-01T00:22:08;0.20;;;0.20;;
22841;SDS011;11587;47.064;15.444;2023-02-01T00:24:34;0.30;;;0.30;;
22841;SDS011;11587;47.064;15.444;2023-02-01T00:27:00;0.20;;;0.20;;
22841;SDS011;11587;47.064;15.444;2023-02-01T00:29:25;0.20;;;0.20;;
22841;SDS011;11587;47.064;15.444;2023-02-01T00:31:51;0.30;;;0.30;;
22841;SDS011;11587;47.064;15.444;2023-02-01T00:34:17;0.20;;;0.20;;
22841;SDS011;11587;47.064;15.444;2023-02-01T00:36:44;0.30;;;0.30;;
22841;SDS011;11587;47.064;15.444;2023-02-01T00:39:10;0.40;;;0.40;;
22841;SDS011;11587;47.064;15.444;2023-02-01T00:41:36;0.40;;;0.40;;
22841;SDS011;11587;47.064;15.444;2023-02-01T00:44:02;0.40;;;0.40;;
22841;SDS011;11587;47.064;15.444;2023-02-01T00:46:28;0.50;;;0.50;;
22841;SDS011;11587;47.064;15.444;2023-02-01T00:48:54;0.50;;;0.50;;
22841;SDS011;11587;47.064;15.444;2023-02-01T00:51:22;0.40;;;0.40;;
22841;SDS011;11587;47.064;15.444;2023-02-01T00:53:49;0.50;;;0.50;;
22841;SDS011;11587;47.064;15.444;2023-02-01T00:56:15;0.40;;;0.40;;
22841;SDS011;11587;47.064;15.444;2023-02-01T00:58:41;0.50;;;0.50;;
22841;SDS011;11587;47.064;15.444;2023-02-01T01:01:09;0.40;;;0.40;;
22841;SDS011;11587;47.064;15.444;2023-02-01T01:03:40;0.40;;;0.40;;
22841;SDS011;11587;47.064;15.444;2023-02-01T01:06:12;0.50;;;0.50;;
22841;SDS011;11587;47.064;15.444;2023-02-01T01:08:42;0.40;;;0.40;;
22841;SDS011;11587;47.064;15.444;2023-02-01T01:11:09;0.50;;;0.50;;
22841;SDS011;11587;47.064;15.444;2023-02-01T01:13:37;0.40;;;0.40;;
22841;SDS011;11587;47.064;15.444;2023-02-01T01:16:04;0.50;;;0.50;;
22841;SDS011;11587;47.064;15.444;2023-02-01T01:18:31;0.50;;;0.50;;
22841;SDS011;11587;47.064;15.444;2023-02-01T01:20:57;0.50;;;0.50;;
22841;SDS011;11587;47.064;15.444;2023-02-01T01:23:24;0.50;;;0.50;;
22841;SDS011;11587;47.064;15.444;2023-02-01T01:25:50;0.40;;;0.40;;
22841;SDS011;11587;47.064;15.444;2023-02-01T01:28:15;0.50;;;0.50;;
22841;SDS011;11587;47.064;15.444;2023-02-01T01:30:41;0.40;;;0.40;;
22841;SDS011;11587;47.064;15.444;2023-02-01T01:33:09;0.50;;;0.50;;
22841;SDS011;11587;47.064;15.444;2023-02-01T01:35:35;0.40;;;0.40;;
22841;SDS011;11587;47.064;15.444;2023-02-01T01:38:01;0.40;;;0.40;;
22841;SDS011;11587;47.064;15.444;2023-02-01T01:40:27;0.50;;;0.50;;
22841;SDS011;11587;47.064;15.444;2023-02-01T01:42:54;0.40;;;0.40;;
22841;SDS011;11587;47.064;15.444;2023-02-01T01:45:30;0.50;;;0.50;;
22841;SDS011;11587;47.064;15.444;2023-02-01T01:47:58;0.40;;;0.40;;
22841;SDS011;11587;47.064;15.444;2023-02-01T01:50:35;0.45;;;0.45;;
22841;SDS011;11587;47.064;15.444;2023-02-01T01:53:13;0.50;;;0.50;;
22841;SDS011;11587;47.064;15.444;2023-02-01T01:55:43;0.40;;;0.40;;
22841;SDS011;11587;47.064;15.444;2023-02-01T01:58:12;0.50;;;0.50;;
22841;SDS011;11587;47.064;15.444;2023-02-01T02:00:42;0.40;;;0.40;;
22841;SDS011;11587;47.064;15.444;2023-02-01T02:03:13;0.50;;;0.50;;
22841;SDS011;11587;47.064;15.444;2023-02-01T02:05:43;0.40;;;0.40;;
22841;SDS011;11587;47.064;15.444;2023-02-01T02:08:10;0.47;;;0.47;;
22841;SDS011;11587;47.064;15.444;2023-02-01T02:10:37;0.50;;;0.50;;
22841;SDS011;11587;47.064;15.444;2023-02-01T02:13:21;0.40;;;0.40;;
22841;SDS011;11587;47.064;15.444;2023-02-01T02:21:48;0.40;;;0.40;;
22841;SDS011;11587;47.064;15.444;2023-02-01T02:42:14;0.50;;;0.50;;
22841;SDS011;11587;47.064;15.444;2023-02-01T02:45:08;0.60;;;0.60;;
22841;SDS011;11587;47.064;15.444;2023-02-01T02:50:57;0.50;;;0.50;;
22841;SDS011;11587;47.064;15.444;2023-02-01T02:56:47;0.40;;;0.40;;
22841;SDS011;11587;47.064;15.444;2023-02-01T02:59:33;0.50;;;0.50;;
22841;SDS011;11587;47.064;15.444;2023-02-01T03:02:19;0.40;;;0.40;;
22841;SDS011;11587;47.064;15.444;2023-02-01T03:05:05;0.50;;;0.50;;
22841;SDS011;11587;47.064;15.444;2023-02-01T03:07:53;0.50;;;0.50;;
22841;SDS011;11587;47.064;15.444;2023-02-01T03:13:08;0.50;;;0.50;;
22841;SDS011;11587;47.064;15.444;2023-02-01T03:18:24;0.50;;;0.50;;
22841;SDS011;11587;47.064;15.444;2023-02-01T03:20:51;0.50;;;0.50;;
22841;SDS011;11587;47.064;15.444;2023-02-01T03:23:19;0.40;;;0.40;;
22841;SDS011;11587;47.064;15.444;2023-02-01T03:25:48;0.50;;;0.50;;
22841;SDS011;11587;47.064;15.444;2023-02-01T03:28:17;0.47;;;0.47;;
22841;SDS011;11587;47.064;15.444;2023-02-01T03:30:46;0.50;;;0.50;;
22841;SDS011;11587;47.064;15.444;2023-02-01T03:33:19;0.50;;;0.50;;
22841;SDS011;11587;47.064;15.444;2023-02-01T03:38:29;0.50;;;0.50;;
22841;SDS011;11587;47.064;15.444;2023-02-01T03:41:12;0.40;;;0.40;;
22841;SDS011;11587;47.064;15.444;2023-02-01T03:44:06;0.50;;;0.50;;
22841;SDS011;11587;47.064;15.444;2023-02-01T03:46:46;0.50;;;0.50;;
22841;SDS011;11587;47.064;15.444;2023-02-01T03:49:41;0.40;;;0.40;;
22841;SDS011;11587;47.064;15.444;2023-02-01T03:52:04;0.50;;;0.50;;
22841;SDS011;11587;47.064;15.444;2023-02-01T03:54:34;0.20;;;0.20;;
22841;SDS011;11587;47.064;15.444;2023-02-01T03:57:01;0.20;;;0.20;;
22841;SDS011;11587;47.064;15.444;2023-02-01T03:59:31;0.30;;;0.30;;
22841;SDS011;11587;47.064;15.444;2023-02-01T04:01:57;0.20;;;0.20;;
22841;SDS011;11587;47.064;15.444;2023-02-01T04:04:23;0.30;;;0.30;;
22841;SDS011;11587;47.064;15.444;2023-02-01T04:06:49;0.20;;;0.20;;
22841;SDS011;11587;47.064;15.444;2023-02-01T04:09:15;0.20;;;0.20;;
22841;SDS011;11587;47.064;15.444;2023-02-01T04:11:41;0.30;;;0.30;;
22841;SDS011;11587;47.064;15.444;2023-02-01T04:14:07;0.20;;;0.20;;
22841;SDS011;11587;47.064;15.444;2023-02-01T04:16:33;0.30;;;0.30;;
22841;SDS011;11587;47.064;15.444;2023-02-01T04:18:59;0.20;;;0.20;;
22841;SDS011;11587;47.064;15.444;2023-02-01T04:21:26;0.30;;;0.30;;
22841;SDS011;11587;47.064;15.444;2023-02-01T04:23:52;0.20;;;0.20;;
22841;SDS011;11587;47.064;15.444;2023-02-01T04:26:18;0.30;;;0.30;;
22841;SDS011;11587;47.064;15.444;2023-02-01T04:28:45;0.20;;;0.20;;
22841;SDS011;11587;47.064;15.444;2023-02-01T04:31:13;0.30;;;0.30;;
22841;SDS011;11587;47.064;15.444;2023-02-01T04:33:39;0.30;;;0.30;;
22841;SDS011;11587;47.064;15.444;2023-02-01T04:36:05;0.30;;;0.30;;
22841;SDS011;11587;47.064;15.444;2023-02-01T04:38:31;0.40;;;0.40;;
22841;SDS011;11587;47.064;15.444;2023-02-01T04:40:57;0.20;;;0.20;;
22841;SDS011;11587;47.064;15.444;2023-02-01T04:43:24;0.40;;;0.40;;
22841;SDS011;11587;47.064;15.444;2023-02-01T04:45:50;0.20;;;0.20;;
22841;SDS011;11587;47.064;15.444;2023-02-01T04:48:19;0.30;;;0.30;;
22841;SDS011;11587;47.064;15.444;2023-02-01T04:50:46;0.20;;;0.20;;
22841;SDS011;11587;47.064;15.444;2023-02-01T04:53:16;0.30;;;0.30;;
22841;SDS011;11587;47.064;15.444;2023-02-01T04:55:42;0.20;;;0.20;;
22841;SDS011;11587;47.064;15.444;2023-02-01T04:58:09;0.30;;;0.30;;
22841;SDS011;11587;47.064;15.444;2023-02-01T05:00:34;0.30;;;0.30;;
22841;SDS011;11587;47.064;15.444;2023-02-01T05:03:00;0.30;;;0.30;;
22841;SDS011;11587;47.064;15.444;2023-02-01T05:05:27;0.30;;;0.30;;
22841;SDS011;11587;47.064;15.444;2023-02-01T05:07:53;0.20;;;0.20;;
22841;SDS011;11587;47.064;15.444;2023-02-01T05:10:19;0.30;;;0.30;;
22841;SDS011;11587;47.064;15.444;2023-02-01T05:12:45;0.20;;;0.20;;
22841;SDS011;11587;47.064;15.444;2023-02-01T05:15:30;0.30;;;0.30;;
22841;SDS011;11587;47.064;15.444;2023-02-01T05:17:56;0.20;;;0.20;;
22841;SDS011;11587;47.064;15.444;2023-02-01T05:20:22;0.30;;;0.30;;
22841;SDS011;11587;47.064;15.444;2023-02-01T05:22:48;0.20;;;0.20;;
22841;SDS011;11587;47.064;15.444;2023-02-01T05:25:14;0.30;;;0.30;;
22841;SDS011;11587;47.064;15.444;2023-02-01T05:27:40;0.25;;;0.25;;
22841;SDS011;11587;47.064;15.444;2023-02-01T05:30:07;0.30;;;0.30;;
22841;SDS011;11587;47.064;15.444;2023-02-01T05:32:33;0.38;;;0.38;;
22841;SDS011;11587;47.064;15.444;2023-02-01T05:34:59;0.20;;;0.20;;
22841;SDS011;11587;47.064;15.444;2023-02-01T05:37:25;0.30;;;0.30;;
22841;SDS011;11587;47.064;15.444;2023-02-01T05:39:51;0.20;;;0.20;;
22841;SDS011;11587;47.064;15.444;2023-02-01T05:42:17;0.30;;;0.30;;
22841;SDS011;11587;47.064;15.444;2023-02-01T05:44:42;0.20;;;0.20;;
22841;SDS011;11587;47.064;15.444;2023-02-01T05:47:08;0.30;;;0.30;;
22841;SDS011;11587;47.064;15.444;2023-02-01T05:49:34;0.20;;;0.20;;
22841;SDS011;11587;47.064;15.444;2023-02-01T05:52:00;0.30;;;0.30;;
22841;SDS011;11587;47.064;15.444;2023-02-01T05:54:26;0.20;;;0.20;;
22841;SDS011;11587;47.064;15.444;2023-02-01T05:56:52;0.30;;;0.30;;
22841;SDS011;11587;47.064;15.444;2023-02-01T05:59:17;0.30;;;0.30;;
22841;SDS011;11587;47.064;15.444;2023-02-01T06:01:43;0.30;;;0.30;;
22841;SDS011;11587;47.064;15.444;2023-02-01T06:04:09;0.40;;;0.40;;
22841;SDS011;11587;47.064;15.444;2023-02-01T06:06:34;0.20;;;0.20;;
22841;SDS011;11587;47.064;15.444;2023-02-01T06:09:01;0.30;;;0.30;;
22841;SDS011;11587;47.064;15.444;2023-02-01T06:11:27;0.25;;;0.25;;
22841;SDS011;11587;47.064;15.444;2023-02-01T06:13:54;0.40;;;0.40;;
22841;SDS011;11587;47.064;15.444;2023-02-01T06:16:20;0.20;;;0.20;;
22841;SDS011;11587;47.064;15.444;2023-02-01T06:18:46;0.30;;;0.30;;
22841;SDS011;11587;47.064;15.444;2023-02-01T06:21:12;0.20;;;0.20;;
22841;SDS011;11587;47.064;15.444;2023-02-01T06:23:49;0.30;;;0.30;;
22841;SDS011;11587;47.064;15.444;2023-02-01T06:26:18;0.22;;;0.22;;
22841;SDS011;11587;47.064;15.444;2023-02-01T06:28:44;0.20;;;0.20;;
22841;SDS011;11587;47.064;15.444;2023-02-01T06:31:10;0.30;;;0.30;;
22841;SDS011;11587;47.064;15.444;2023-02-01T06:33:36;0.20;;;0.20;;
22841;SDS011;11587;47.064;15.444;2023-02-01T06:36:03;0.30;;;0.30;;
22841;SDS011;11587;47.064;15.444;2023-02-01T06:38:31;0.20;;;0.20;;
22841;SDS011;11587;47.064;15.444;2023-02-01T06:41:00;0.30;;;0.30;;
22841;SDS011;11587;47.064;15.444;2023-02-01T06:43:26;0.20;;;0.20;;
22841;SDS011;11587;47.064;15.444;2023-02-01T06:45:52;0.30;;;0.30;;
22841;SDS011;11587;47.064;15.444;2023-02-01T06:48:18;0.30;;;0.30;;
22841;SDS011;11587;47.064;15.444;2023-02-01T06:50:44;0.30;;;0.30;;
22841;SDS011;11587;47.064;15.444;2023-02-01T06:53:10;0.30;;;0.30;;
22841;SDS011;11587;47.064;15.444;2023-02-01T06:55:36;0.20;;;0.20;;
22841;SDS011;11587;47.064;15.444;2023-02-01T06:58:01;0.30;;;0.30;;
22841;SDS011;11587;47.064;15.444;2023-02-01T07:00:28;0.20;;;0.20;;
22841;SDS011;11587;47.064;15.444;2023-02-01T07:02:54;0.30;;;0.30;;
22841;SDS011;11587;47.064;15.444;2023-02-01T07:05:22;0.20;;;0.20;;
22841;SDS011;11587;47.064;15.444;2023-02-01T07:07:48;0.30;;;0.30;;
22841;SDS011;11587;47.064;15.444;2023-02-01T07:10:13;0.20;;;0.20;;
22841;SDS011;11587;47.064;15.444;2023-02-01T07:12:39;0.30;;;0.30;;
22841;SDS011;11587;47.064;15.444;2023-02-01T07:15:05;0.30;;;0.30;;
22841;SDS011;11587;47.064;15.444;2023-02-01T07:17:31;0.20;;;0.20;;
22841;SDS011;11587;47.064;15.444;2023-02-01T07:19:57;0.30;;;0.30;;
22841;SDS011;11587;47.064;15.444;2023-02-01T07:22:26;0.20;;;0.20;;
22841;SDS011;11587;47.064;15.444;2023-02-01T07:24:52;0.30;;;0.30;;
22841;SDS011;11587;47.064;15.444;2023-02-01T07:27:18;0.20;;;0.20;;
22841;SDS011;11587;47.064;15.444;2023-02-01T07:29:44;0.30;;;0.30;;
22841;SDS011;11587;47.064;15.444;2023-02-01T07:32:10;0.20;;;0.20;;
22841;SDS011;11587;47.064;15.444;2023-02-01T07:34:36;0.30;;;0.30;;
22841;SDS011;11587;47.064;15.444;2023-02-01T07:37:02;0.30;;;0.30;;
22841;SDS011;11587;47.064;15.444;2023-02-01T07:39:27;0.20;;;0.20;;
22841;SDS011;11587;47.064;15.444;2023-02-01T07:41:53;0.30;;;0.30;;
22841;SDS011;11587;47.064;15.444;2023-02-01T07:44:19;0.20;;;0.20;;
22841;SDS011;11587;47.064;15.444;2023-02-01T07:46:48;0.30;;;0.30;;
22841;SDS011;11587;47.064;15.444;2023-02-01T07:49:14;0.20;;;0.20;;
22841;SDS011;11587;47.064;15.444;2023-02-01T07:51:40;0.20;;;0.20;;
22841;SDS011;11587;47.064;15.444;2023-02-01T07:54:06;0.30;;;0.30;;
22841;SDS011;11587;47.064;15.444;2023-02-01T07:56:31;0.20;;;0.20;;
22841;SDS011;11587;47.064;15.444;2023-02-01T07:58:57;0.30;;;0.30;;
22841;SDS011;11587;47.064;15.444;2023-02-01T08:01:26;0.20;;;0.20;;
22841;SDS011;11587;47.064;15.444;2023-02-01T08:03:54;0.20;;;0.20;;
22841;SDS011;11587;47.064;15.444;2023-02-01T08:06:22;0.30;;;0.30;;
22841;SDS011;11587;47.064;15.444;2023-02-01T08:08:49;0.20;;;0.20;;
22841;SDS011;11587;47.064;15.444;2023-02-01T08:11:15;0.30;;;0.30;;
22841;SDS011;11587;47.064;15.444;2023-02-01T08:13:42;0.20;;;0.20;;
22841;SDS011;11587;47.064;15.444;2023-02-01T08:16:09;0.20;;;0.20;;
22841;SDS011;11587;47.064;15.444;2023-02-01T08:18:36;0.20;;;0.20;;
22841;SDS011;11587;47.064;15.444;2023-02-01T08:21:10;0.20;;;0.20;;
22841;SDS011;11587;47.064;15.444;2023-02-01T08:23:39;0.20;;;0.20;;
22841;SDS011;11587;47.064;15.444;2023-02-01T08:26:10;0.30;;;0.30;;
22841;SDS011;11587;47.064;15.444;2023-02-01T08:28:38;0.20;;;0.20;;
22841;SDS011;11587;47.064;15.444;2023-02-01T08:31:07;0.30;;;0.30;;
22841;SDS011;11587;47.064;15.444;2023-02-01T08:33:34;0.22;;;0.22;;
22841;SDS011;11587;47.064;15.444;2023-02-01T08:36:02;0.20;;;0.20;;
22841;SDS011;11587;47.064;15.444;2023-02-01T08:38:29;0.20;;;0.20;;
22841;SDS011;11587;47.064;15.444;2023-02-01T08:40:54;0.20;;;0.20;;
22841;SDS011;11587;47.064;15.444;2023-02-01T08:43:20;0.20;;;0.20;;
22841;SDS011;11587;47.064;15.444;2023-02-01T08:45:46;0.20;;;0.20;;
22841;SDS011;11587;47.064;15.444;2023-02-01T08:48:11;0.20;;;0.20;;
22841;SDS011;11587;47.064;15.444;2023-02-01T08:50:37;0.20;;;0.20;;
22841;SDS011;11587;47.064;15.444;2023-02-01T08:53:03;0.30;;;0.30;;
22841;SDS011;11587;47.064;15.444;2023-02-01T08:55:28;0.20;;;0.20;;
22841;SDS011;11587;47.064;15.444;2023-02-01T08:57:55;0.20;;;0.20;;
22841;SDS011;11587;47.064;15.444;2023-02-01T09:00:21;0.20;;;0.20;;
22841;SDS011;11587;47.064;15.444;2023-02-01T09:02:46;0.20;;;0.20;;
22841;SDS011;11587;47.064;15.444;2023-02-01T09:05:12;0.20;;;0.20;;
22841;SDS011;11587;47.064;15.444;2023-02-01T09:07:41;0.20;;;0.20;;
22841;SDS011;11587;47.064;15.444;2023-02-01T09:10:07;0.20;;;0.20;;
22841;SDS011;11587;47.064;15.444;2023-02-01T09:12:34;0.20;;;0.20;;
22841;SDS011;11587;47.064;15.444;2023-02-01T09:15:00;0.20;;;0.20;;
22841;SDS011;11587;47.064;15.444;2023-02-01T09:17:27;0.20;;;0.20;;
22841;SDS011;11587;47.064;15.444;2023-02-01T09:19:53;0.20;;;0.20;;
22841;SDS011;11587;47.064;15.444;2023-02-01T09:22:19;0.20;;;0.20;;
22841;SDS011;11587;47.064;15.444;2023-02-01T09:24:45;0.20;;;0.20;;
22841;SDS011;11587;47.064;15.444;2023-02-01T09:27:11;0.20;;;0.20;;
22841;SDS011;11587;47.064;15.444;2023-02-01T09:29:37;0.20;;;0.20;;
22841;SDS011;11587;47.064;15.444;2023-02-01T09:32:02;0.30;;;0.30;;
22841;SDS011;11587;47.064;15.444;2023-02-01T09:34:28;0.20;;;0.20;;
22841;SDS011;11587;47.064;15.444;2023-02-01T09:36:54;0.20;;;0.20;;
22841;SDS011;11587;47.064;15.444;2023-02-01T09:39:20;0.20;;;0.20;;
22841;SDS011;11587;47.064;15.444;2023-02-01T09:47:22;0.20;;;0.20;;
22841;SDS011;11587;47.064;15.444;2023-02-01T09:52:40;0.10;;;0.10;;
22841;SDS011;11587;47.064;15.444;2023-02-01T09:55:20;0.10;;;0.10;;
22841;SDS011;11587;47.064;15.444;2023-02-01T09:57:58;0.20;;;0.20;;
22841;SDS011;11587;47.064;15.444;2023-02-01T10:00:37;0.20;;;0.20;;
22841;SDS011;11587;47.064;15.444;2023-02-01T10:03:04;0.20;;;0.20;;
22841;SDS011;11587;47.064;15.444;2023-02-01T10:05:40;0.20;;;0.20;;
22841;SDS011;11587;47.064;15.444;2023-02-01T10:10:54;0.20;;;0.20;;
22841;SDS011;11587;47.064;15.444;2023-02-01T10:13:29;0.20;;;0.20;;
22841;SDS011;11587;47.064;15.444;2023-02-01T10:16:43;0.20;;;0.20;;
22841;SDS011;11587;47.064;15.444;2023-02-01T10:22:39;0.10;;;0.10;;
22841;SDS011;11587;47.064;15.444;2023-02-01T10:25:14;0.20;;;0.20;;
22841;SDS011;11587;47.064;15.444;2023-02-01T10:27:51;0.10;;;0.10;;
22841;SDS011;11587;47.064;15.444;2023-02-01T10:30:21;0.20;;;0.20;;
22841;SDS011;11587;47.064;15.444;2023-02-01T10:32:49;0.20;;;0.20;;
22841;SDS011;11587;47.064;15.444;2023-02-01T10:35:33;0.20;;;0.20;;
22841;SDS011;11587;47.064;15.444;2023-02-01T10:38:01;0.20;;;0.20;;
22841;SDS011;11587;47.064;15.444;2023-02-01T10:40:30;0.10;;;0.10;;
22841;SDS011;11587;47.064;15.444;2023-02-01T10:43:00;0.10;;;0.10;;
22841;SDS011;11587;47.064;15.444;2023-02-01T10:45:28;0.10;;;0.10;;
22841;SDS011;11587;47.064;15.444;2023-02-01T10:47:55;0.20;;;0.20;;
22841;SDS011;11587;47.064;15.444;2023-02-01T10:50:33;0.20;;;0.20;;
22841;SDS011;11587;47.064;15.444;2023-02-01T10:56:11;0.20;;;0.20;;
22841;SDS011;11587;47.064;15.444;2023-02-01T10:58:44;0.20;;;0.20;;
22841;SDS011;11587;47.064;15.444;2023-02-01T11:01:16;0.13;;;0.13;;
22841;SDS011;11587;47.064;15.444;2023-02-01T11:04:06;0.10;;;0.10;;
22841;SDS011;11587;47.064;15.444;2023-02-01T11:06:40;0.10;;;0.10;;
22841;SDS011;11587;47.064;15.444;2023-02-01T11:09:17;0.00;;;0.00;;
22841;SDS011;11587;47.064;15.444;2023-02-01T11:14:17;0.00;;;0.00;;
22841;SDS011;11587;47.064;15.444;2023-02-01T11:16:57;0.00;;;0.00;;
22841;SDS011;11587;47.064;15.444;2023-02-01T11:19:27;0.00;;;0.00;;
22841;SDS011;11587;47.064;15.444;2023-02-01T11:21:54;0.00;;;0.00;;
22841;SDS011;11587;47.064;15.444;2023-02-01T11:24:25;0.00;;;0.00;;
22841;SDS011;11587;47.064;15.444;2023-02-01T11:26:57;0.00;;;0.00;;
22841;SDS011;11587;47.064;15.444;2023-02-01T11:29:24;0.00;;;0.00;;
22841;SDS011;11587;47.064;15.444;2023-02-01T11:31:57;0.00;;;0.00;;
22841;SDS011;11587;47.064;15.444;2023-02-01T11:34:25;0.00;;;0.00;;
22841;SDS011;11587;47.064;15.444;2023-02-01T11:36:56;0.00;;;0.00;;
22841;SDS011;11587;47.064;15.444;2023-02-01T11:39:25;0.00;;;0.00;;
22841;SDS011;11587;47.064;15.444;2023-02-01T11:44:38;0.00;;;0.00;;
22841;SDS011;11587;47.064;15.444;2023-02-01T11:49:52;0.00;;;0.00;;
22841;SDS011;11587;47.064;15.444;2023-02-01T11:55:01;0.00;;;0.00;;
22841;SDS011;11587;47.064;15.444;2023-02-01T12:13:27;0.00;;;0.00;;
22841;SDS011;11587;47.064;15.444;2023-02-01T12:19:11;0.00;;;0.00;;
22841;SDS011;11587;47.064;15.444;2023-02-01T12:22:04;0.00;;;0.00;;
22841;SDS011;11587;47.064;15.444;2023-02-01T12:44:22;0.00;;;0.00;;
22841;SDS011;11587;47.064;15.444;2023-02-01T12:49:29;0.00;;;0.00;;
22841;SDS011;11587;47.064;15.444;2023-02-01T12:52:06;0.00;;;0.00;;
22841;SDS011;11587;47.064;15.444;2023-02-01T12:55:21;0.10;;;0.10;;
22841;SDS011;11587;47.064;15.444;2023-02-01T13:00:50;0.00;;;0.00;;
22841;SDS011;11587;47.064;15.444;2023-02-01T13:03:36;0.10;;;0.10;;
22841;SDS011;11587;47.064;15.444;2023-02-01T13:06:15;0.03;;;0.03;;
22841;SDS011;11587;47.064;15.444;2023-02-01T13:11:40;0.00;;;0.00;;
22841;SDS011;11587;47.064;15.444;2023-02-01T13:17:32;0.00;;;0.00;;
22841;SDS011;11587;47.064;15.444;2023-02-01T13:22:34;0.10;;;0.10;;
22841;SDS011;11587;47.064;15.444;2023-02-01T13:27:41;0.10;;;0.10;;
22841;SDS011;11587;47.064;15.444;2023-02-01T13:30:15;0.10;;;0.10;;
22841;SDS011;11587;47.064;15.444;2023-02-01T13:36:22;0.20;;;0.20;;
22841;SDS011;11587;47.064;15.444;2023-02-01T13:44:38;0.20;;;0.20;;
22841;SDS011;11587;47.064;15.444;2023-02-01T13:47:28;0.20;;;0.20;;
22841;SDS011;11587;47.064;15.444;2023-02-01T13:49:58;0.20;;;0.20;;
22841;SDS011;11587;47.064;15.444;2023-02-01T13:52:37;0.20;;;0.20;;
22841;SDS011;11587;47.064;15.444;2023-02-01T13:57:45;0.20;;;0.20;;
22841;SDS011;11587;47.064;15.444;2023-02-01T14:00:28;0.20;;;0.20;;
22841;SDS011;11587;47.064;15.444;2023-02-01T14:21:13;0.20;;;0.20;;
22841;SDS011;11587;47.064;15.444;2023-02-01T14:29:03;0.20;;;0.20;;
22841;SDS011;11587;47.064;15.444;2023-02-01T14:44:47;0.17;;;0.17;;
22841;SDS011;11587;47.064;15.444;2023-02-01T14:52:31;0.10;;;0.10;;
22841;SDS011;11587;47.064;15.444;2023-02-01T14:55:11;0.10;;;0.10;;
22841;SDS011;11587;47.064;15.444;2023-02-01T14:57:49;0.10;;;0.10;;
22841;SDS011;11587;47.064;15.444;2023-02-01T15:00:19;0.10;;;0.10;;
22841;SDS011;11587;47.064;15.444;2023-02-01T15:02:50;0.10;;;0.10;;
22841;SDS011;11587;47.064;15.444;2023-02-01T15:05:30;0.10;;;0.10;;
22841;SDS011;11587;47.064;15.444;2023-02-01T15:08:00;0.20;;;0.20;;
22841;SDS011;11587;47.064;15.444;2023-02-01T15:10:32;0.10;;;0.10;;
22841;SDS011;11587;47.064;15.444;2023-02-01T15:13:12;0.20;;;0.20;;
22841;SDS011;11587;47.064;15.444;2023-02-01T15:16:02;0.20;;;0.20;;
22841;SDS011;11587;47.064;15.444;2023-02-01T15:18:30;0.20;;;0.20;;
22841;SDS011;11587;47.064;15.444;2023-02-01T15:20:57;0.20;;;0.20;;
22841;SDS011;11587;47.064;15.444;2023-02-01T15:23:25;0.10;;;0.10;;
22841;SDS011;11587;47.064;15.444;2023-02-01T15:25:52;0.20;;;0.20;;
22841;SDS011;11587;47.064;15.444;2023-02-01T15:28:18;0.20;;;0.20;;
22841;SDS011;11587;47.064;15.444;2023-02-01T15:30:52;0.20;;;0.20;;
22841;SDS011;11587;47.064;15.444;2023-02-01T15:33:25;0.20;;;0.20;;
22841;SDS011;11587;47.064;15.444;2023-02-01T15:36:06;0.20;;;0.20;;
22841;SDS011;11587;47.064;15.444;2023-02-01T15:38:43;0.20;;;0.20;;
22841;SDS011;11587;47.064;15.444;2023-02-01T15:41:14;0.20;;;0.20;;
22841;SDS011;11587;47.064;15.444;2023-02-01T15:46:22;0.20;;;0.20;;
22841;SDS011;11587;47.064;15.444;2023-02-01T15:48:56;0.20;;;0.20;;
22841;SDS011;11587;47.064;15.444;2023-02-01T15:51:25;0.20;;;0.20;;
22841;SDS011;11587;47.064;15.444;2023-02-01T15:53:58;0.20;;;0.20;;
22841;SDS011;11587;47.064;15.444;2023-02-01T15:56:27;0.20;;;0.20;;
22841;SDS011;11587;47.064;15.444;2023-02-01T15:58:58;0.10;;;0.10;;
22841;SDS011;11587;47.064;15.444;2023-02-01T16:01:26;0.10;;;0.10;;
22841;SDS011;11587;47.064;15.444;2023-02-01T16:04:10;0.20;;;0.20;;
22841;SDS011;11587;47.064;15.444;2023-02-01T16:07:00;0.20;;;0.20;;
22841;SDS011;11587;47.064;15.444;2023-02-01T16:10:27;0.20;;;0.20;;
22841;SDS011;11587;47.064;15.444;2023-02-01T16:15:04;0.20;;;0.20;;
22841;SDS011;11587;47.064;15.444;2023-02-01T16:17:30;0.20;;;0.20;;
22841;SDS011;11587;47.064;15.444;2023-02-01T16:19:56;0.20;;;0.20;;
22841;SDS011;11587;47.064;15.444;2023-02-01T16:22:23;0.10;;;0.10;;
22841;SDS011;11587;47.064;15.444;2023-02-01T16:24:49;0.20;;;0.20;;
22841;SDS011;11587;47.064;15.444;2023-02-01T16:27:15;0.20;;;0.20;;
22841;SDS011;11587;47.064;15.444;2023-02-01T16:29:41;0.20;;;0.20;;
22841;SDS011;11587;47.064;15.444;2023-02-01T16:32:11;0.10;;;0.10;;
22841;SDS011;11587;47.064;15.444;2023-02-01T16:34:44;0.10;;;0.10;;
22841;SDS011;11587;47.064;15.444;2023-02-01T16:37:15;0.10;;;0.10;;
22841;SDS011;11587;47.064;15.444;2023-02-01T16:39:46;0.10;;;0.10;;
22841;SDS011;11587;47.064;15.444;2023-02-01T16:42:13;0.20;;;0.20;;
22841;SDS011;11587;47.064;15.444;2023-02-01T16:44:40;0.20;;;0.20;;
22841;SDS011;11587;47.064;15.444;2023-02-01T16:47:21;0.30;;;0.30;;
22841;SDS011;11587;47.064;15.444;2023-02-01T16:49:48;0.20;;;0.20;;
22841;SDS011;11587;47.064;15.444;2023-02-01T16:52:16;0.30;;;0.30;;
22841;SDS011;11587;47.064;15.444;2023-02-01T16:54:45;0.30;;;0.30;;
22841;SDS011;11587;47.064;15.444;2023-02-01T16:57:12;0.20;;;0.20;;
22841;SDS011;11587;47.064;15.444;2023-02-01T16:59:40;0.20;;;0.20;;
22841;SDS011;11587;47.064;15.444;2023-02-01T17:02:09;0.20;;;0.20;;
22841;SDS011;11587;47.064;15.444;2023-02-01T17:04:39;0.20;;;0.20;;
22841;SDS011;11587;47.064;15.444;2023-02-01T17:07:06;0.20;;;0.20;;
22841;SDS011;11587;47.064;15.444;2023-02-01T17:09:36;0.28;;;0.28;;
22841;SDS011;11587;47.064;15.444;2023-02-01T17:12:02;0.30;;;0.30;;
22841;SDS011;11587;47.064;15.444;2023-02-01T17:14:30;0.30;;;0.30;;
22841;SDS011;11587;47.064;15.444;2023-02-01T17:16:57;0.20;;;0.20;;
22841;SDS011;11587;47.064;15.444;2023-02-01T17:19:24;0.20;;;0.20;;
22841;SDS011;11587;47.064;15.444;2023-02-01T17:21:51;0.20;;;0.20;;
22841;SDS011;11587;47.064;15.444;2023-02-01T17:24:22;0.15;;;0.15;;
22841;SDS011;11587;47.064;15.444;2023-02-01T17:26:49;0.20;;;0.20;;
22841;SDS011;11587;47.064;15.444;2023-02-01T17:29:16;0.20;;;0.20;;
22841;SDS011;11587;47.064;15.444;2023-02-01T17:31:43;0.20;;;0.20;;
22841;SDS011;11587;47.064;15.444;2023-02-01T17:34:12;0.20;;;0.20;;
22841;SDS011;11587;47.064;15.444;2023-02-01T17:36:40;0.10;;;0.10;;
22841;SDS011;11587;47.064;15.444;2023-02-01T17:39:07;0.10;;;0.10;;
22841;SDS011;11587;47.064;15.444;2023-02-01T17:41:34;0.15;;;0.15;;
22841;SDS011;11587;47.064;15.444;2023-02-01T17:44:01;0.20;;;0.20;;
22841;SDS011;11587;47.064;15.444;2023-02-01T17:46:28;0.20;;;0.20;;
22841;SDS011;11587;47.064;15.444;2023-02-01T17:48:55;0.20;;;0.20;;